Time;durP1;ratioP1;P1;durP2;ratioP2;P2;SDS_P1;SDS_P2;PMS_P1;PMS_P2;Temp;Humidity;BMP_temperature;BMP_pressure;BME280_temperature;BME280_humidity;BME280_pressure;Samples;Min_cycle;Max_cycle;Signal;HPM_P1;HPM_P2
2022/05/30 00:00:08;;;;;;;0.65;0.65;;;;;;;;;;7390605;19;20011;-76
2022/05/30 00:02:36;;;;;;;0.43;0.43;;;;;;;;;;7391209;19;20015;-76
2022/05/30 00:05:02;;;;;;;2.20;0.75;;;;;;;;;;7394039;19;20031;-77
2022/05/30 00:07:27;;;;;;;1.40;0.80;;;;;;;;;;7394487;19;20028;-77
2022/05/30 00:09:54;;;;;;;5.03;0.85;;;;;;;;;;7391483;19;20072;-77
2022/05/30 00:12:20;;;;;;;0.93;0.82;;;;;;;;;;7391185;19;20006;-77
2022/05/30 00:14:45;;;;;;;0.63;0.63;;;;;;;;;;7390563;19;20014;-77
2022/05/30 00:17:11;;;;;;;3.80;0.68;;;;;;;;;;7390732;19;20310;-77
2022/05/30 00:19:37;;;;;;;11.15;1.42;;;;;;;;;;7390820;19;20136;-76
2022/05/30 00:22:04;;;;;;;1.85;0.60;;;;;;;;;;7394494;19;20015;-77
2022/05/30 00:24:31;;;;;;;0.50;0.47;;;;;;;;;;7392421;19;20042;-77
2022/05/30 00:26:57;;;;;;;0.60;0.60;;;;;;;;;;7390654;19;20033;-76
2022/05/30 00:29:22;;;;;;;0.60;0.60;;;;;;;;;;7391285;19;20094;-78
2022/05/30 00:31:48;;;;;;;3.85;0.90;;;;;;;;;;7387381;19;20002;-77
2022/05/30 00:34:13;;;;;;;0.95;0.75;;;;;;;;;;7388953;19;20017;-77
2022/05/30 00:36:38;;;;;;;0.93;0.80;;;;;;;;;;7389556;19;20042;-76
2022/05/30 00:39:04;;;;;;;5.05;0.90;;;;;;;;;;7389847;19;20106;-77
2022/05/30 00:41:29;;;;;;;0.70;0.60;;;;;;;;;;7389826;19;20048;-77
2022/05/30 00:43:54;;;;;;;1.60;0.60;;;;;;;;;;7383824;19;20006;-77
2022/05/30 00:46:20;;;;;;;0.50;0.50;;;;;;;;;;7389247;19;20006;-77
2022/05/30 00:48:49;;;;;;;1.88;0.65;;;;;;;;;;7389235;19;20074;-77
2022/05/30 00:51:19;;;;;;;2.63;0.50;;;;;;;;;;7389912;19;20070;-77
2022/05/30 00:53:48;;;;;;;0.93;0.80;;;;;;;;;;7387433;19;20021;-77
2022/05/30 00:56:14;;;;;;;0.70;0.70;;;;;;;;;;7387626;19;20006;-77
2022/05/30 00:58:46;;;;;;;0.90;0.70;;;;;;;;;;7387398;19;20035;-77
2022/05/30 01:01:11;;;;;;;0.47;0.47;;;;;;;;;;7388018;19;20025;-77
2022/05/30 01:06:30;;;;;;;17.08;2.25;;;;;;;;;;7390087;19;20027;-77
2022/05/30 01:08:57;;;;;;;10.88;1.00;;;;;;;;;;7392013;19;20014;-77
2022/05/30 01:11:22;;;;;;;0.73;0.73;;;;;;;;;;7388327;19;20082;-77
2022/05/30 01:13:48;;;;;;;0.60;0.57;;;;;;;;;;7388251;19;20346;-77
2022/05/30 01:16:13;;;;;;;3.95;1.70;;;;;;;;;;7389653;19;20507;-78
2022/05/30 01:18:46;;;;;;;4.50;0.80;;;;;;;;;;7388536;19;20003;-77
2022/05/30 01:21:30;;;;;;;1.17;0.70;;;;;;;;;;7387852;19;20359;-77
2022/05/30 01:24:32;;;;;;;2.90;0.50;;;;;;;;;;7386468;19;20348;-77
2022/05/30 01:27:18;;;;;;;1.63;0.50;;;;;;;;;;7391411;19;20014;-77
2022/05/30 01:29:52;;;;;;;0.28;0.28;;;;;;;;;;7397889;19;19995;-77
2022/05/30 01:32:19;;;;;;;0.90;0.43;;;;;;;;;;7395458;19;20014;-77
2022/05/30 01:34:44;;;;;;;0.60;0.57;;;;;;;;;;7396156;19;20011;-77
2022/05/30 01:37:09;;;;;;;1.00;0.43;;;;;;;;;;7391932;19;20002;-76
2022/05/30 01:39:34;;;;;;;0.50;0.50;;;;;;;;;;7399252;19;20031;-77
2022/05/30 01:42:00;;;;;;;3.67;0.75;;;;;;;;;;7396788;19;20013;-77
2022/05/30 01:44:25;;;;;;;0.50;0.50;;;;;;;;;;7392799;19;20332;-76
2022/05/30 01:46:50;;;;;;;7.80;1.30;;;;;;;;;;7393951;19;20017;-77
2022/05/30 01:49:15;;;;;;;3.97;0.70;;;;;;;;;;7396740;19;20029;-77
2022/05/30 01:51:42;;;;;;;5.57;0.75;;;;;;;;;;7395839;19;20442;-77
2022/05/30 01:54:07;;;;;;;3.58;0.65;;;;;;;;;;7394591;19;20568;-77
2022/05/30 01:56:32;;;;;;;1.00;0.80;;;;;;;;;;7393757;19;20580;-77
2022/05/30 01:58:57;;;;;;;0.60;0.60;;;;;;;;;;7391923;19;20487;-76
2022/05/30 02:01:26;;;;;;;1.15;0.40;;;;;;;;;;7395046;19;20010;-76
2022/05/30 02:03:52;;;;;;;5.47;0.70;;;;;;;;;;7389881;19;20021;-76
2022/05/30 02:06:23;;;;;;;1.42;0.50;;;;;;;;;;7390789;19;20018;-76
2022/05/30 02:08:48;;;;;;;6.00;0.80;;;;;;;;;;7391848;19;20125;-76
2022/05/30 02:11:16;;;;;;;0.40;0.40;;;;;;;;;;7392947;19;20118;-76
2022/05/30 02:13:42;;;;;;;0.80;0.70;;;;;;;;;;7390857;19;20011;-76
2022/05/30 02:18:55;;;;;;;5.80;1.42;;;;;;;;;;7393740;19;20398;-76
2022/05/30 02:21:20;;;;;;;4.03;0.80;;;;;;;;;;7392035;19;20034;-76
2022/05/30 02:23:45;;;;;;;0.60;0.60;;;;;;;;;;7391963;19;20010;-76
2022/05/30 02:26:11;;;;;;;8.07;1.92;;;;;;;;;;7391628;19;20027;-76
2022/05/30 02:28:36;;;;;;;20.38;2.00;;;;;;;;;;7390459;19;20078;-76
2022/05/30 02:31:02;;;;;;;6.65;0.68;;;;;;;;;;7393359;19;20034;-76
2022/05/30 02:38:55;;;;;;;3.72;1.40;;;;;;;;;;7393896;19;20029;-76
2022/05/30 02:41:20;;;;;;;9.43;1.02;;;;;;;;;;7392534;19;20010;-76
2022/05/30 02:43:46;;;;;;;4.43;0.80;;;;;;;;;;7390017;19;20019;-76
2022/05/30 02:46:12;;;;;;;0.50;0.50;;;;;;;;;;7391049;19;20106;-76
2022/05/30 02:48:37;;;;;;;6.05;0.60;;;;;;;;;;7392127;19;20011;-76
2022/05/30 02:51:02;;;;;;;0.55;0.55;;;;;;;;;;7392223;19;20014;-76
2022/05/30 02:53:28;;;;;;;7.93;0.68;;;;;;;;;;7391553;19;20006;-77
2022/05/30 02:55:53;;;;;;;3.10;0.80;;;;;;;;;;7391036;19;20471;-76
2022/05/30 02:58:18;;;;;;;2.78;0.60;;;;;;;;;;7387889;19;20011;-76
2022/05/30 03:00:44;;;;;;;4.50;0.80;;;;;;;;;;7392819;19;20069;-76
2022/05/30 03:03:09;;;;;;;1.23;0.70;;;;;;;;;;7391357;19;20370;-77
2022/05/30 03:05:37;;;;;;;2.67;0.60;;;;;;;;;;7392730;19;20115;-76
2022/05/30 03:08:07;;;;;;;0.40;0.40;;;;;;;;;;7391439;19;20519;-76
2022/05/30 03:10:32;;;;;;;0.47;0.47;;;;;;;;;;7392156;19;20006;-76
2022/05/30 03:12:57;;;;;;;2.15;0.65;;;;;;;;;;7392069;19;20074;-76
2022/05/30 03:15:23;;;;;;;3.88;0.75;;;;;;;;;;7392141;19;20010;-76
2022/05/30 03:17:51;;;;;;;17.08;2.45;;;;;;;;;;7390302;19;20003;-76
2022/05/30 03:20:17;;;;;;;8.10;1.63;;;;;;;;;;7392103;19;20031;-76
2022/05/30 03:22:42;;;;;;;2.95;0.85;;;;;;;;;;7392005;19;20011;-76
2022/05/30 03:25:08;;;;;;;1.75;0.70;;;;;;;;;;7389579;19;20006;-77
2022/05/30 03:27:33;;;;;;;0.47;0.47;;;;;;;;;;7391341;19;20011;-77
2022/05/30 03:29:58;;;;;;;2.70;0.75;;;;;;;;;;7391136;19;20025;-76
2022/05/30 03:32:23;;;;;;;2.38;0.73;;;;;;;;;;7391838;19;20499;-76
2022/05/30 03:34:49;;;;;;;1.55;1.00;;;;;;;;;;7390452;19;20010;-77
2022/05/30 03:37:14;;;;;;;1.70;0.98;;;;;;;;;;7391407;19;20085;-76
2022/05/30 03:39:39;;;;;;;2.42;1.05;;;;;;;;;;7390793;19;20002;-76
2022/05/30 03:42:05;;;;;;;0.85;0.75;;;;;;;;;;7391113;19;20519;-76
2022/05/30 03:44:30;;;;;;;14.60;2.28;;;;;;;;;;7389549;19;20010;-75
2022/05/30 03:46:55;;;;;;;24.48;1.38;;;;;;;;;;7384398;19;20527;-76
2022/05/30 03:49:21;;;;;;;1.58;0.70;;;;;;;;;;7390897;19;20002;-76
2022/05/30 03:51:46;;;;;;;19.45;1.17;;;;;;;;;;7392564;19;20566;-76
2022/05/30 03:54:11;;;;;;;8.95;1.67;;;;;;;;;;7389518;19;20007;-76
2022/05/30 03:56:37;;;;;;;10.65;1.13;;;;;;;;;;7389179;19;20014;-77
2022/05/30 03:59:02;;;;;;;19.05;3.83;;;;;;;;;;7387675;19;20088;-76
2022/05/30 04:01:27;;;;;;;21.52;2.30;;;;;;;;;;7390234;19;20450;-76
2022/05/30 04:03:53;;;;;;;20.52;1.52;;;;;;;;;;7384107;19;19998;-77
2022/05/30 04:06:18;;;;;;;0.60;0.57;;;;;;;;;;7391670;19;20476;-77
2022/05/30 04:08:43;;;;;;;13.45;1.40;;;;;;;;;;7392732;19;20388;-76
2022/05/30 04:11:09;;;;;;;7.78;0.85;;;;;;;;;;7390721;19;20027;-77
2022/05/30 04:13:34;;;;;;;14.25;1.45;;;;;;;;;;7389088;19;19999;-77
2022/05/30 04:16:10;;;;;;;7.85;0.93;;;;;;;;;;7386870;19;20010;-77
2022/05/30 04:18:35;;;;;;;11.05;1.58;;;;;;;;;;7390262;19;20045;-77
2022/05/30 04:21:01;;;;;;;4.95;1.10;;;;;;;;;;7391073;19;20439;-76
2022/05/30 04:23:26;;;;;;;4.75;1.60;;;;;;;;;;7388163;19;20014;-76
2022/05/30 04:25:51;;;;;;;12.52;1.38;;;;;;;;;;7391009;19;20010;-76
2022/05/30 04:28:16;;;;;;;10.98;1.35;;;;;;;;;;7390096;19;20038;-76
2022/05/30 04:30:42;;;;;;;4.25;0.93;;;;;;;;;;7389038;19;20019;-76
2022/05/30 04:33:07;;;;;;;4.20;1.50;;;;;;;;;;7388665;19;20037;-77
2022/05/30 04:35:32;;;;;;;4.63;0.75;;;;;;;;;;7390351;19;20044;-77
2022/05/30 04:37:57;;;;;;;0.85;0.77;;;;;;;;;;7387703;19;20009;-76
2022/05/30 04:40:23;;;;;;;0.68;0.60;;;;;;;;;;7389925;19;20010;-77
2022/05/30 04:42:48;;;;;;;1.75;0.60;;;;;;;;;;7387793;19;20018;-77
2022/05/30 04:45:14;;;;;;;0.90;0.77;;;;;;;;;;7387423;19;20021;-76
2022/05/30 04:47:40;;;;;;;3.00;0.75;;;;;;;;;;7387886;19;20014;-77
2022/05/30 04:50:09;;;;;;;2.33;0.65;;;;;;;;;;7390811;19;20010;-77
2022/05/30 04:52:34;;;;;;;7.22;0.93;;;;;;;;;;7388974;19;20007;-77
2022/05/30 04:54:59;;;;;;;1.23;0.85;;;;;;;;;;7387442;19;20010;-76
2022/05/30 04:57:25;;;;;;;1.02;0.93;;;;;;;;;;7385187;19;20014;-77
2022/05/30 04:59:51;;;;;;;1.63;0.80;;;;;;;;;;7387369;19;20014;-77
2022/05/30 05:02:17;;;;;;;1.17;0.95;;;;;;;;;;7395464;19;20010;-76
2022/05/30 05:04:42;;;;;;;2.38;0.93;;;;;;;;;;7395161;19;20690;-77
2022/05/30 05:07:09;;;;;;;10.95;2.30;;;;;;;;;;7392955;19;20022;-77
2022/05/30 05:09:55;;;;;;;3.25;1.80;;;;;;;;;;7396230;19;20029;-77
2022/05/30 05:12:20;;;;;;;1.80;1.33;;;;;;;;;;7395386;19;20017;-75
2022/05/30 05:14:45;;;;;;;1.95;1.40;;;;;;;;;;7393106;19;20474;-76
2022/05/30 05:17:10;;;;;;;1.30;0.95;;;;;;;;;;7393991;19;20324;-75
2022/05/30 05:19:41;;;;;;;5.20;1.10;;;;;;;;;;7390190;19;20123;-75
2022/05/30 05:22:07;;;;;;;5.18;1.50;;;;;;;;;;7393952;19;20022;-74
2022/05/30 05:24:33;;;;;;;3.47;0.63;;;;;;;;;;7393369;19;20002;-76
2022/05/30 05:26:58;;;;;;;4.43;0.70;;;;;;;;;;7390751;19;20018;-75
2022/05/30 05:29:23;;;;;;;21.40;1.25;;;;;;;;;;7390964;19;20002;-75
2022/05/30 05:31:49;;;;;;;0.70;0.70;;;;;;;;;;7395346;19;20049;-75
2022/05/30 05:34:15;;;;;;;0.80;0.80;;;;;;;;;;7393003;19;20236;-75
2022/05/30 05:36:46;;;;;;;3.42;0.90;;;;;;;;;;7392608;19;20022;-76
2022/05/30 05:39:14;;;;;;;3.53;1.08;;;;;;;;;;7395754;19;20716;-75
2022/05/30 05:41:44;;;;;;;2.88;0.90;;;;;;;;;;7390022;19;20450;-76
2022/05/30 05:44:10;;;;;;;2.67;0.90;;;;;;;;;;7393776;19;20144;-76
2022/05/30 05:46:36;;;;;;;3.35;1.00;;;;;;;;;;7393402;19;20460;-76
2022/05/30 05:49:02;;;;;;;14.73;1.30;;;;;;;;;;7395862;19;20014;-75
2022/05/30 05:51:28;;;;;;;0.73;0.73;;;;;;;;;;7394630;19;20017;-75
2022/05/30 05:53:53;;;;;;;2.67;1.05;;;;;;;;;;7394361;19;20010;-76
2022/05/30 05:56:24;;;;;;;18.35;1.45;;;;;;;;;;7391365;19;19998;-76
2022/05/30 05:58:50;;;;;;;1.33;0.95;;;;;;;;;;7391735;19;20043;-77
2022/05/30 06:01:30;;;;;;;1.35;1.05;;;;;;;;;;7392981;19;20122;-76
2022/05/30 06:03:57;;;;;;;1.20;1.10;;;;;;;;;;7396090;19;20077;-77
2022/05/30 06:06:23;;;;;;;1.48;1.25;;;;;;;;;;7411680;19;20078;-77
2022/05/30 06:08:50;;;;;;;1.85;1.15;;;;;;;;;;7410522;19;20007;-76
2022/05/30 06:11:16;;;;;;;1.67;1.10;;;;;;;;;;7395178;19;20011;-77
2022/05/30 06:13:44;;;;;;;1.45;1.20;;;;;;;;;;7395101;19;20006;-77
2022/05/30 06:16:15;;;;;;;1.30;1.20;;;;;;;;;;7391834;19;20010;-77
2022/05/30 06:18:40;;;;;;;3.03;1.08;;;;;;;;;;7392265;19;20014;-77
2022/05/30 06:21:06;;;;;;;8.32;1.65;;;;;;;;;;7394123;19;20431;-76
2022/05/30 06:23:32;;;;;;;1.35;1.25;;;;;;;;;;7395354;19;20003;-76
2022/05/30 06:26:01;;;;;;;6.47;2.00;;;;;;;;;;7402259;19;20011;-77
2022/05/30 06:28:28;;;;;;;1.60;1.50;;;;;;;;;;7391660;19;20410;-77
2022/05/30 06:30:53;;;;;;;1.30;1.20;;;;;;;;;;7394354;19;20010;-77
2022/05/30 06:33:18;;;;;;;1.48;1.38;;;;;;;;;;7394959;19;20111;-77
2022/05/30 06:35:44;;;;;;;2.03;1.35;;;;;;;;;;7391638;19;20014;-77
2022/05/30 06:38:10;;;;;;;1.65;1.50;;;;;;;;;;7387427;19;20531;-77
2022/05/30 06:40:36;;;;;;;1.58;1.48;;;;;;;;;;7395854;19;19999;-77
2022/05/30 06:43:02;;;;;;;1.95;1.42;;;;;;;;;;7396078;19;20030;-76
2022/05/30 06:45:28;;;;;;;2.05;1.48;;;;;;;;;;7394396;19;20022;-76
2022/05/30 06:47:53;;;;;;;2.20;1.63;;;;;;;;;;7394546;19;20011;-76
2022/05/30 06:50:19;;;;;;;1.52;1.42;;;;;;;;;;7398937;19;20005;-77
2022/05/30 06:52:44;;;;;;;3.60;1.67;;;;;;;;;;7391118;19;20010;-77
2022/05/30 06:55:10;;;;;;;2.60;1.70;;;;;;;;;;7394971;19;20011;-77
2022/05/30 07:00:20;;;;;;;2.55;1.60;;;;;;;;;;7395280;19;20013;-77
2022/05/30 07:02:46;;;;;;;2.85;1.30;;;;;;;;;;7392207;19;20369;-77
2022/05/30 07:05:11;;;;;;;1.65;1.20;;;;;;;;;;7391814;19;20003;-77
2022/05/30 07:07:40;;;;;;;1.50;1.30;;;;;;;;;;7394688;19;20158;-77
2022/05/30 07:10:07;;;;;;;1.30;1.20;;;;;;;;;;7396091;19;20530;-77
2022/05/30 07:12:32;;;;;;;1.92;1.35;;;;;;;;;;7397357;19;20010;-77
2022/05/30 07:14:57;;;;;;;1.45;1.33;;;;;;;;;;7396308;19;20080;-77
2022/05/30 07:17:25;;;;;;;1.63;1.48;;;;;;;;;;7397584;19;20006;-77
2022/05/30 07:19:51;;;;;;;1.55;1.40;;;;;;;;;;7400097;19;20018;-78
2022/05/30 07:22:16;;;;;;;1.95;1.10;;;;;;;;;;7399214;19;20018;-77
2022/05/30 07:24:41;;;;;;;1.20;1.10;;;;;;;;;;7402750;19;20405;-77
2022/05/30 07:27:06;;;;;;;1.65;1.40;;;;;;;;;;7400168;19;20329;-77
2022/05/30 07:29:32;;;;;;;1.95;1.50;;;;;;;;;;7405363;19;20018;-78
2022/05/30 07:31:59;;;;;;;1.15;1.05;;;;;;;;;;7399595;19;20344;-77
2022/05/30 07:34:26;;;;;;;1.20;1.10;;;;;;;;;;7393936;19;20044;-77
2022/05/30 07:36:51;;;;;;;1.40;1.30;;;;;;;;;;7393429;19;20278;-77
2022/05/30 07:39:18;;;;;;;1.33;1.23;;;;;;;;;;7391055;19;20856;-77
2022/05/30 07:41:44;;;;;;;1.15;1.13;;;;;;;;;;7392962;19;20022;-77
2022/05/30 07:44:09;;;;;;;1.77;1.15;;;;;;;;;;7391934;19;20014;-77
2022/05/30 07:46:34;;;;;;;2.25;1.30;;;;;;;;;;7389890;19;20001;-77
2022/05/30 07:49:00;;;;;;;1.85;1.25;;;;;;;;;;7391456;19;20500;-77
2022/05/30 07:51:25;;;;;;;1.02;1.00;;;;;;;;;;7392176;19;20434;-77
2022/05/30 07:53:50;;;;;;;1.10;1.00;;;;;;;;;;7394041;19;20002;-78
2022/05/30 07:56:17;;;;;;;1.02;1.02;;;;;;;;;;7388879;19;20007;-77
2022/05/30 07:58:43;;;;;;;2.08;1.05;;;;;;;;;;7389784;19;20019;-77
2022/05/30 08:01:12;;;;;;;1.58;1.13;;;;;;;;;;7393148;19;20396;-77
2022/05/30 08:03:38;;;;;;;1.10;1.05;;;;;;;;;;7390936;19;20019;-77
2022/05/30 08:06:04;;;;;;;1.20;1.10;;;;;;;;;;7390950;19;20006;-78
2022/05/30 08:08:30;;;;;;;1.20;1.10;;;;;;;;;;7392741;19;19998;-77
2022/05/30 08:10:55;;;;;;;1.30;1.15;;;;;;;;;;7389244;19;20373;-77
2022/05/30 08:13:20;;;;;;;2.97;1.30;;;;;;;;;;7388683;19;20500;-78
2022/05/30 08:15:45;;;;;;;1.35;0.80;;;;;;;;;;7390099;19;20011;-77
2022/05/30 08:18:16;;;;;;;0.80;0.80;;;;;;;;;;7387239;19;20535;-77
2022/05/30 08:20:41;;;;;;;1.33;1.00;;;;;;;;;;7391115;19;20005;-77
2022/05/30 08:23:07;;;;;;;1.17;0.98;;;;;;;;;;7390582;19;20014;-77
2022/05/30 08:25:32;;;;;;;4.25;1.25;;;;;;;;;;7389037;19;20034;-78
2022/05/30 08:27:58;;;;;;;0.95;0.80;;;;;;;;;;7390493;19;20030;-77
2022/05/30 08:30:23;;;;;;;1.00;0.93;;;;;;;;;;7391036;19;20475;-77
2022/05/30 08:32:48;;;;;;;1.48;1.10;;;;;;;;;;7388330;19;20011;-77
2022/05/30 08:35:16;;;;;;;1.88;1.00;;;;;;;;;;7388762;19;20023;-77
2022/05/30 08:37:42;;;;;;;1.60;1.17;;;;;;;;;;7390366;19;20011;-77
2022/05/30 08:42:57;;;;;;;1.13;1.00;;;;;;;;;;7389705;19;20043;-77
2022/05/30 08:45:25;;;;;;;1.67;1.15;;;;;;;;;;7384681;19;20362;-77
2022/05/30 08:47:56;;;;;;;1.30;1.20;;;;;;;;;;7389531;19;20014;-77
2022/05/30 08:50:39;;;;;;;1.10;0.98;;;;;;;;;;7390886;19;20003;-77
2022/05/30 08:53:49;;;;;;;3.28;1.17;;;;;;;;;;7388863;19;20012;-77
2022/05/30 08:56:36;;;;;;;1.85;1.02;;;;;;;;;;7387359;19;20407;-77
2022/05/30 08:59:11;;;;;;;1.45;0.80;;;;;;;;;;7388325;19;20010;-77
2022/05/30 09:01:40;;;;;;;0.80;0.80;;;;;;;;;;7388674;19;20003;-77
2022/05/30 09:04:17;;;;;;;1.42;1.15;;;;;;;;;;7388067;19;20424;-77
2022/05/30 09:06:49;;;;;;;5.80;1.00;;;;;;;;;;7387237;19;20018;-77
2022/05/30 09:09:22;;;;;;;1.25;0.98;;;;;;;;;;7389406;19;20010;-77
2022/05/30 09:11:52;;;;;;;1.73;0.95;;;;;;;;;;7388802;19;20027;-77
2022/05/30 09:14:34;;;;;;;2.97;1.20;;;;;;;;;;7387468;19;20170;-78
2022/05/30 09:17:02;;;;;;;2.55;1.00;;;;;;;;;;7385456;19;20353;-77
2022/05/30 09:19:27;;;;;;;1.83;0.98;;;;;;;;;;7388279;19;20036;-78
2022/05/30 09:22:01;;;;;;;1.27;0.80;;;;;;;;;;7387823;19;20003;-77
2022/05/30 09:24:27;;;;;;;1.52;1.05;;;;;;;;;;7388024;19;20037;-77
2022/05/30 09:26:54;;;;;;;0.77;0.77;;;;;;;;;;7386274;19;20014;-77
2022/05/30 09:29:27;;;;;;;1.08;0.80;;;;;;;;;;7388488;19;20346;-78
2022/05/30 09:32:19;;;;;;;1.45;0.80;;;;;;;;;;7389195;19;20019;-78
2022/05/30 09:34:49;;;;;;;1.67;1.20;;;;;;;;;;7389713;19;20081;-77
2022/05/30 09:37:27;;;;;;;1.10;1.00;;;;;;;;;;7386655;19;20010;-77
2022/05/30 09:39:53;;;;;;;0.70;0.70;;;;;;;;;;7387623;19;20005;-77
2022/05/30 09:42:33;;;;;;;1.48;0.77;;;;;;;;;;7388352;19;20466;-78
2022/05/30 09:45:15;;;;;;;1.05;0.80;;;;;;;;;;7386102;19;20010;-77
2022/05/30 09:48:00;;;;;;;0.90;0.77;;;;;;;;;;7394619;19;20007;-77
2022/05/30 09:50:25;;;;;;;1.85;0.90;;;;;;;;;;7396888;19;20022;-78
2022/05/30 09:52:50;;;;;;;1.30;0.80;;;;;;;;;;7391979;19;20014;-77
2022/05/30 09:55:33;;;;;;;3.22;1.27;;;;;;;;;;7393698;19;20006;-77
2022/05/30 09:57:59;;;;;;;0.80;0.60;;;;;;;;;;7394986;19;20528;-77
2022/05/30 10:00:30;;;;;;;0.88;0.70;;;;;;;;;;7396831;19;20023;-77
2022/05/30 10:03:03;;;;;;;1.90;0.80;;;;;;;;;;7395808;19;20018;-77
2022/05/30 10:05:31;;;;;;;3.58;0.82;;;;;;;;;;7395456;19;20014;-77
2022/05/30 10:07:57;;;;;;;1.17;0.60;;;;;;;;;;7395031;19;20043;-77
2022/05/30 10:10:38;;;;;;;0.80;0.60;;;;;;;;;;7394541;19;20010;-77
2022/05/30 10:13:07;;;;;;;4.47;0.68;;;;;;;;;;7394330;19;20018;-77
2022/05/30 10:15:37;;;;;;;1.08;0.63;;;;;;;;;;7394071;19;20014;-78
2022/05/30 10:18:15;;;;;;;0.70;0.60;;;;;;;;;;7395252;19;20002;-78
2022/05/30 10:21:03;;;;;;;0.85;0.70;;;;;;;;;;7392214;19;20010;-77
2022/05/30 10:29:58;;;;;;;;;;;;;;;;;;7396448;19;20100;-77
2022/05/30 10:32:53;;;;;;;0.60;0.60;;;;;;;;;;7393022;19;19922;-77
2022/05/30 10:35:39;;;;;;;0.75;0.60;;;;;;;;;;7391908;19;20074;-77
2022/05/30 10:38:42;;;;;;;1.13;0.50;;;;;;;;;;7392645;19;20074;-77
2022/05/30 10:41:16;;;;;;;2.25;0.68;;;;;;;;;;7396810;19;20010;-77
2022/05/30 10:43:57;;;;;;;0.93;0.70;;;;;;;;;;7394854;19;20010;-78
2022/05/30 10:46:32;;;;;;;1.02;0.82;;;;;;;;;;7393479;19;20014;-78
2022/05/30 10:49:08;;;;;;;3.95;0.70;;;;;;;;;;7396824;19;20019;-78
2022/05/30 10:51:58;;;;;;;2.50;1.20;;;;;;;;;;7396021;19;20002;-78
2022/05/30 10:54:34;;;;;;;1.17;0.77;;;;;;;;;;7394813;19;20032;-77
2022/05/30 10:57:22;;;;;;;1.17;0.93;;;;;;;;;;7390590;19;20012;-78
2022/05/30 11:00:06;;;;;;;1.42;0.75;;;;;;;;;;7396588;19;20091;-78
2022/05/30 11:02:46;;;;;;;0.60;0.60;;;;;;;;;;7398626;19;20475;-77
2022/05/30 11:05:43;;;;;;;3.55;0.70;;;;;;;;;;7394380;19;20015;-78
2022/05/30 11:08:32;;;;;;;2.95;0.70;;;;;;;;;;7397489;19;20006;-79
2022/05/30 11:11:10;;;;;;;0.80;0.60;;;;;;;;;;7396383;19;20010;-79
2022/05/30 11:13:59;;;;;;;0.98;0.52;;;;;;;;;;7407099;19;20002;-79
2022/05/30 11:16:54;;;;;;;0.50;0.50;;;;;;;;;;7390814;19;20040;-79
2022/05/30 11:19:42;;;;;;;1.08;0.50;;;;;;;;;;7402283;19;20017;-79
2022/05/30 11:22:17;;;;;;;1.20;0.65;;;;;;;;;;7401575;19;20076;-79
2022/05/30 11:24:50;;;;;;;0.50;0.50;;;;;;;;;;7392614;19;20448;-79
2022/05/30 11:27:36;;;;;;;1.00;0.70;;;;;;;;;;7393801;19;20130;-81
2022/05/30 11:30:10;;;;;;;0.70;0.50;;;;;;;;;;7397023;19;20387;-80
2022/05/30 11:33:35;;;;;;;0.57;0.52;;;;;;;;;;7397798;19;20014;-81
2022/05/30 11:36:34;;;;;;;0.75;0.43;;;;;;;;;;7392587;19;20015;-80
2022/05/30 11:39:30;;;;;;;0.63;0.32;;;;;;;;;;7395111;19;20051;-80
2022/05/30 11:42:05;;;;;;;0.55;0.45;;;;;;;;;;7392243;19;20018;-80
2022/05/30 11:44:41;;;;;;;2.47;0.60;;;;;;;;;;7402997;19;20007;-81
2022/05/30 11:47:20;;;;;;;0.45;0.40;;;;;;;;;;7394479;19;20052;-79
2022/05/30 11:49:53;;;;;;;1.27;0.60;;;;;;;;;;7405037;19;20008;-80
2022/05/30 11:52:27;;;;;;;0.57;0.50;;;;;;;;;;7393144;19;20018;-78
2022/05/30 11:55:20;;;;;;;0.70;0.55;;;;;;;;;;7388438;19;20459;-78
2022/05/30 11:57:54;;;;;;;0.90;0.50;;;;;;;;;;7387364;19;20010;-78
2022/05/30 12:00:55;;;;;;;1.08;0.57;;;;;;;;;;7391894;19;20035;-78
2022/05/30 12:03:35;;;;;;;0.95;0.50;;;;;;;;;;7384819;19;20020;-78
2022/05/30 12:06:10;;;;;;;0.47;0.47;;;;;;;;;;7389328;19;20008;-80
2022/05/30 12:09:12;;;;;;;0.67;0.57;;;;;;;;;;7391685;19;19999;-79
2022/05/30 12:12:00;;;;;;;0.40;0.20;;;;;;;;;;7391074;19;20015;-77
2022/05/30 12:15:16;;;;;;;2.90;0.65;;;;;;;;;;7389972;19;20014;-78
2022/05/30 12:24:19;;;;;;;0.43;0.40;;;;;;;;;;7392183;19;20005;-78
2022/05/30 12:26:56;;;;;;;0.55;0.30;;;;;;;;;;7388829;19;20467;-78
2022/05/30 12:29:37;;;;;;;0.80;0.50;;;;;;;;;;7391447;19;20022;-78
2022/05/30 12:32:20;;;;;;;0.90;0.63;;;;;;;;;;7388796;19;20026;-79
2022/05/30 12:34:57;;;;;;;0.98;0.60;;;;;;;;;;7389747;19;20010;-79
2022/05/30 12:37:51;;;;;;;0.52;0.40;;;;;;;;;;7387693;19;20006;-79
2022/05/30 12:40:25;;;;;;;1.17;0.50;;;;;;;;;;7390688;19;20107;-79
2022/05/30 12:43:08;;;;;;;0.68;0.50;;;;;;;;;;7390583;19;20018;-78
2022/05/30 12:45:37;;;;;;;1.10;0.60;;;;;;;;;;7389930;19;20118;-79
2022/05/30 12:48:36;;;;;;;0.52;0.52;;;;;;;;;;7397949;19;20104;-78
2022/05/30 12:51:22;;;;;;;0.45;0.40;;;;;;;;;;7409613;19;20529;-79
2022/05/30 12:54:03;;;;;;;0.45;0.45;;;;;;;;;;7411088;19;20030;-79
2022/05/30 12:56:40;;;;;;;0.82;0.60;;;;;;;;;;7401461;19;20010;-80
2022/05/30 12:59:16;;;;;;;0.57;0.50;;;;;;;;;;7391130;19;20011;-79
2022/05/30 13:01:44;;;;;;;1.08;0.40;;;;;;;;;;7395155;19;20007;-78
2022/05/30 13:04:15;;;;;;;0.65;0.28;;;;;;;;;;7392698;19;20044;-78
2022/05/30 13:07:01;;;;;;;1.23;0.38;;;;;;;;;;7391877;19;20369;-78
2022/05/30 13:09:40;;;;;;;0.32;0.32;;;;;;;;;;7392830;19;20015;-78
2022/05/30 13:12:12;;;;;;;1.35;0.40;;;;;;;;;;7391967;19;20014;-79
2022/05/30 13:14:37;;;;;;;0.70;0.45;;;;;;;;;;7403768;19;20047;-78
2022/05/30 13:17:23;;;;;;;0.70;0.40;;;;;;;;;;7393980;19;20031;-79
2022/05/30 13:19:54;;;;;;;0.73;0.43;;;;;;;;;;7389478;19;20070;-76
2022/05/30 13:22:34;;;;;;;0.57;0.50;;;;;;;;;;7390095;19;20118;-76
2022/05/30 13:25:00;;;;;;;1.50;0.65;;;;;;;;;;7395353;19;19998;-76
2022/05/30 13:27:27;;;;;;;1.00;0.52;;;;;;;;;;7392374;19;20463;-76
2022/05/30 13:29:53;;;;;;;0.70;0.50;;;;;;;;;;7394836;19;20487;-76
2022/05/30 13:32:21;;;;;;;0.40;0.40;;;;;;;;;;7395310;19;20018;-77
2022/05/30 13:34:49;;;;;;;1.65;0.57;;;;;;;;;;7393678;19;20006;-76
2022/05/30 13:37:22;;;;;;;0.30;0.30;;;;;;;;;;7389663;19;20018;-77
2022/05/30 13:39:50;;;;;;;1.83;0.60;;;;;;;;;;7390273;19;20035;-76
2022/05/30 13:42:15;;;;;;;1.15;0.50;;;;;;;;;;7391351;19;20011;-76
2022/05/30 13:44:40;;;;;;;0.40;0.40;;;;;;;;;;7392282;19;20024;-76
2022/05/30 13:47:10;;;;;;;1.63;0.65;;;;;;;;;;7389322;19;20013;-76
2022/05/30 13:49:41;;;;;;;0.85;0.52;;;;;;;;;;7392546;19;20014;-77
2022/05/30 13:52:11;;;;;;;0.75;0.40;;;;;;;;;;7392826;19;20112;-76
2022/05/30 13:54:41;;;;;;;1.05;0.60;;;;;;;;;;7391077;19;20014;-76
2022/05/30 13:57:09;;;;;;;0.73;0.57;;;;;;;;;;7390006;19;20010;-77
2022/05/30 13:59:40;;;;;;;0.32;0.32;;;;;;;;;;7390622;19;20761;-77
2022/05/30 14:02:26;;;;;;;1.15;0.45;;;;;;;;;;7391178;19;20011;-76
2022/05/30 14:04:59;;;;;;;0.50;0.50;;;;;;;;;;7394112;19;20026;-77
2022/05/30 14:07:27;;;;;;;0.50;0.40;;;;;;;;;;7389420;19;20415;-76
2022/05/30 14:09:57;;;;;;;1.13;0.52;;;;;;;;;;7393476;19;20418;-77
2022/05/30 14:12:29;;;;;;;1.20;0.60;;;;;;;;;;7393513;19;20476;-76
2022/05/30 14:15:10;;;;;;;0.70;0.50;;;;;;;;;;7394022;19;20062;-77
2022/05/30 14:17:36;;;;;;;0.82;0.50;;;;;;;;;;7393084;19;20048;-77
2022/05/30 14:20:13;;;;;;;0.65;0.45;;;;;;;;;;7392683;19;20010;-77
2022/05/30 14:22:40;;;;;;;1.95;0.40;;;;;;;;;;7392100;19;20010;-76
2022/05/30 14:25:20;;;;;;;1.05;0.52;;;;;;;;;;7386869;19;20025;-77
2022/05/30 14:27:48;;;;;;;0.47;0.45;;;;;;;;;;7391825;19;20733;-77
2022/05/30 14:30:24;;;;;;;0.85;0.63;;;;;;;;;;7393474;19;20010;-77
2022/05/30 14:33:05;;;;;;;2.35;0.60;;;;;;;;;;7391429;19;20065;-77
2022/05/30 14:35:31;;;;;;;0.70;0.43;;;;;;;;;;7394546;19;20034;-77
2022/05/30 14:37:56;;;;;;;0.93;0.70;;;;;;;;;;7388318;19;20012;-77
2022/05/30 14:40:27;;;;;;;0.50;0.35;;;;;;;;;;7391283;19;20133;-77
2022/05/30 14:42:58;;;;;;;0.68;0.50;;;;;;;;;;7393424;19;20045;-78
2022/05/30 14:45:28;;;;;;;0.95;0.40;;;;;;;;;;7392642;19;19998;-77
2022/05/30 14:47:58;;;;;;;1.88;0.40;;;;;;;;;;7394189;19;20010;-78
2022/05/30 14:50:35;;;;;;;1.58;0.50;;;;;;;;;;7394156;19;20014;-77
2022/05/30 14:53:01;;;;;;;0.93;0.55;;;;;;;;;;7387424;19;20013;-77
2022/05/30 14:55:40;;;;;;;0.65;0.55;;;;;;;;;;7388858;19;20536;-77
2022/05/30 14:58:11;;;;;;;0.60;0.40;;;;;;;;;;7387575;19;20015;-77
2022/05/30 15:00:50;;;;;;;0.50;0.25;;;;;;;;;;7393175;19;19995;-76
2022/05/30 15:05:59;;;;;;;0.40;0.40;;;;;;;;;;7385845;19;20490;-77
2022/05/30 15:08:24;;;;;;;0.85;0.40;;;;;;;;;;7386250;19;20114;-77
2022/05/30 15:10:50;;;;;;;1.08;0.50;;;;;;;;;;7389755;19;20421;-77
2022/05/30 15:13:15;;;;;;;1.48;0.60;;;;;;;;;;7388496;19;20318;-77
2022/05/30 15:15:41;;;;;;;0.80;0.50;;;;;;;;;;7389245;19;20006;-77
2022/05/30 15:18:09;;;;;;;0.95;0.38;;;;;;;;;;7382284;19;20007;-77
2022/05/30 15:20:36;;;;;;;0.40;0.40;;;;;;;;;;7386280;19;20893;-76
2022/05/30 15:23:02;;;;;;;0.73;0.47;;;;;;;;;;7387445;19;20010;-76
2022/05/30 15:25:29;;;;;;;1.42;0.50;;;;;;;;;;7389304;19;20003;-77
2022/05/30 15:27:55;;;;;;;1.08;0.70;;;;;;;;;;7388497;19;20105;-76
2022/05/30 15:30:20;;;;;;;0.90;0.57;;;;;;;;;;7384722;19;20363;-77
2022/05/30 15:32:45;;;;;;;0.88;0.60;;;;;;;;;;7388563;19;20007;-77
2022/05/30 15:35:11;;;;;;;0.75;0.52;;;;;;;;;;7389513;19;20066;-77